createdAt,value
2022-10-14T00:01:24.796Z,101405.69
2022-10-14T00:03:53.651Z,101401.41
2022-10-14T00:06:24.925Z,101391.59
2022-10-14T00:08:52.581Z,101393.63
2022-10-14T00:11:26.941Z,101390.06
2022-10-14T00:13:59.932Z,101391.91
2022-10-14T00:16:32.563Z,101394.59
2022-10-14T00:19:00.433Z,101391.16
2022-10-14T00:21:29.183Z,101394.94
2022-10-14T00:23:57.207Z,101395.16
2022-10-14T00:26:28.777Z,101393.53
2022-10-14T00:28:57.400Z,101397.28
2022-10-14T00:31:27.820Z,101395.66
2022-10-14T00:33:55.546Z,101392.00
2022-10-14T00:36:24.978Z,101386.72
2022-10-14T00:38:53.883Z,101382.09
2022-10-14T00:41:30.441Z,101382.97
2022-10-14T00:43:59.016Z,101381.34
2022-10-14T00:46:36.028Z,101377.00
2022-10-14T00:49:14.014Z,101378.09
2022-10-14T00:51:45.644Z,101372.03
2022-10-14T00:54:15.810Z,101373.03
2022-10-14T00:56:45.290Z,101374.09
2022-10-14T00:59:12.648Z,101377.97
2022-10-14T01:01:39.892Z,101378.09
2022-10-14T01:04:06.849Z,101372.69
2022-10-14T01:06:49.923Z,101376.44
2022-10-14T01:10:02.830Z,101370.41
2022-10-14T01:12:41.084Z,101368.66
2022-10-14T01:15:39.474Z,101360.81
2022-10-14T01:18:39.949Z,101359.28
2022-10-14T01:21:42.511Z,101366.69
2022-10-14T01:25:04.576Z,101365.81
2022-10-14T01:27:51.717Z,101354.28
2022-10-14T01:30:23.185Z,101360.66
2022-10-14T01:33:02.523Z,101352.69
2022-10-14T01:35:49.282Z,101360.00
2022-10-14T01:38:27.758Z,101362.78
2022-10-14T01:41:06.958Z,101355.69
2022-10-14T01:43:36.386Z,101348.66
2022-10-14T01:46:06.701Z,101354.16
2022-10-14T01:48:38.381Z,101356.09
2022-10-14T01:51:13.513Z,101359.53
2022-10-14T01:53:51.605Z,101356.09
2022-10-14T01:56:18.816Z,101357.06
2022-10-14T01:58:47.146Z,101351.88
2022-10-14T02:01:16.655Z,101345.66
2022-10-14T02:03:47.657Z,101343.91
2022-10-14T02:06:37.939Z,101345.06
2022-10-14T02:09:31.758Z,101348.75
2022-10-14T02:12:16.029Z,101349.03
2022-10-14T02:15:04.603Z,101345.59
2022-10-14T02:17:51.626Z,101347.50
2022-10-14T02:20:35.272Z,101340.31
2022-10-14T02:23:41.688Z,101319.88
2022-10-14T02:26:10.056Z,101323.50
2022-10-14T02:28:39.878Z,101327.06
2022-10-14T02:31:14.243Z,101326.19
2022-10-14T02:33:52.136Z,101328.91
2022-10-14T02:36:23.651Z,101329.00
2022-10-14T02:38:51.119Z,101330.94
2022-10-14T02:41:22.716Z,101330.06
2022-10-14T02:43:50.033Z,101330.28
2022-10-14T02:46:21.501Z,101336.69
2022-10-14T02:48:50.016Z,101329.72
2022-10-14T02:51:17.837Z,101330.47
2022-10-14T02:53:44.838Z,101327.97
2022-10-14T02:56:14.187Z,101323.66
2022-10-14T02:58:41.201Z,101319.38
2022-10-14T03:01:08.500Z,101319.66
2022-10-14T03:03:36.660Z,101323.41
2022-10-14T03:06:04.118Z,101325.34
2022-10-14T03:08:31.483Z,101325.53
2022-10-14T03:10:59.616Z,101325.63
2022-10-14T03:13:27.839Z,101325.81
2022-10-14T03:15:55.362Z,101319.59
2022-10-14T03:18:22.325Z,101315.19
2022-10-14T03:20:52.977Z,101318.84
2022-10-14T03:23:26.440Z,101318.72
2022-10-14T03:25:54.606Z,101326.78
2022-10-14T03:28:28.709Z,101320.88
2022-10-14T03:31:03.743Z,101318.06
2022-10-14T03:33:56.905Z,101314.59
2022-10-14T03:36:24.188Z,101316.56
2022-10-14T03:38:53.545Z,101327.28
2022-10-14T03:41:43.024Z,101330.84
2022-10-14T03:44:11.862Z,101331.69
2022-10-14T03:46:44.841Z,101342.38
2022-10-14T03:49:13.146Z,101337.84
2022-10-14T03:51:40.173Z,101329.13
2022-10-14T03:54:18.220Z,101333.59
2022-10-14T03:56:45.519Z,101341.78
2022-10-14T03:59:13.310Z,101337.47
2022-10-14T04:02:06.574Z,101326.06
2022-10-14T04:04:33.576Z,101339.41
2022-10-14T04:07:00.809Z,101334.03
2022-10-14T04:09:29.235Z,101341.13
2022-10-14T04:11:57.878Z,101334.88
2022-10-14T04:14:41.272Z,101334.97
2022-10-14T04:17:08.156Z,101328.06
2022-10-14T04:19:35.194Z,101329.03
2022-10-14T04:22:03.144Z,101341.69
2022-10-14T04:24:31.995Z,101333.63
2022-10-14T04:27:00.224Z,101339.13
2022-10-14T04:29:44.098Z,101326.75
2022-10-14T04:32:17.549Z,101333.16
2022-10-14T04:34:45.207Z,101322.31
2022-10-14T04:37:15.692Z,101327.03
2022-10-14T04:39:48.752Z,101321.75
2022-10-14T04:42:16.828Z,101327.22
2022-10-14T04:44:47.562Z,101335.25
2022-10-14T04:47:15.703Z,101329.22
2022-10-14T04:49:49.748Z,101324.91
2022-10-14T04:52:20.904Z,101325.97
2022-10-14T04:55:06.762Z,101322.50
2022-10-14T04:57:43.154Z,101314.94
2022-10-14T05:00:13.101Z,101317.50
2022-10-14T05:03:02.819Z,101318.47
2022-10-14T05:05:34.437Z,101317.69
2022-10-14T05:08:04.515Z,101315.00
2022-10-14T05:10:40.595Z,101316.75
2022-10-14T05:13:11.812Z,101321.34
2022-10-14T05:15:51.494Z,101320.38
2022-10-14T05:18:19.036Z,101323.19
2022-10-14T05:20:54.697Z,101322.31
2022-10-14T05:23:24.322Z,101321.34
2022-10-14T05:25:52.682Z,101316.09
2022-10-14T05:28:20.453Z,101314.34
2022-10-14T05:30:50.081Z,101317.13
2022-10-14T05:33:18.650Z,101313.59
2022-10-14T05:35:58.541Z,101316.28
2022-10-14T05:38:27.898Z,101314.44
2022-10-14T05:40:57.166Z,101306.47
2022-10-14T05:43:30.939Z,101314.63
2022-10-14T05:46:00.452Z,101307.63
2022-10-14T05:48:29.914Z,101303.25
2022-10-14T05:51:01.694Z,101296.91
2022-10-14T05:53:30.730Z,101309.53
2022-10-14T05:56:09.083Z,101306.09
2022-10-14T05:58:41.495Z,101299.88
2022-10-14T06:01:11.618Z,101294.41
2022-10-14T06:03:41.468Z,101306.84
2022-10-14T06:06:15.404Z,101306.00
2022-10-14T06:08:43.455Z,101305.91
2022-10-14T06:11:11.938Z,101305.06
2022-10-14T06:13:39.400Z,101306.78
2022-10-14T06:16:11.004Z,101306.66
2022-10-14T06:18:38.819Z,101314.72
2022-10-14T06:21:07.305Z,101315.69
2022-10-14T06:23:34.719Z,101323.63
2022-10-14T06:26:10.168Z,101320.69
2022-10-14T06:28:37.866Z,101318.78
2022-10-14T06:31:05.378Z,101323.91
2022-10-14T06:33:33.514Z,101323.66
2022-10-14T06:36:03.591Z,101321.75
2022-10-14T06:38:31.779Z,101326.03
2022-10-14T06:40:58.815Z,101335.72
2022-10-14T06:43:25.964Z,101336.50
2022-10-14T06:45:52.979Z,101332.78
2022-10-14T06:48:20.021Z,101333.47
2022-10-14T06:50:47.212Z,101335.06
2022-10-14T06:53:15.315Z,101336.72
2022-10-14T06:55:42.733Z,101343.78
2022-10-14T06:58:10.179Z,101348.97
2022-10-14T07:00:37.659Z,101351.41
2022-10-14T07:03:05.329Z,101353.03
2022-10-14T07:05:32.590Z,101351.00
2022-10-14T07:10:31.579Z,101354.06
2022-10-14T07:12:58.561Z,101353.00
2022-10-14T07:15:25.622Z,101359.81
2022-10-14T07:17:52.678Z,101357.97
2022-10-14T07:20:20.614Z,101361.34
2022-10-14T07:22:47.998Z,101360.28
2022-10-14T07:25:15.158Z,101368.22
2022-10-14T07:27:42.150Z,101371.56
2022-10-14T07:30:12.585Z,101380.41
2022-10-14T07:32:42.365Z,101382.91
2022-10-14T07:35:09.689Z,101379.25
2022-10-14T07:37:36.636Z,101380.03
2022-10-14T07:40:04.761Z,101385.19
2022-10-14T07:42:31.813Z,101392.94
2022-10-14T07:44:58.816Z,101397.19
2022-10-14T07:47:26.379Z,101394.19
2022-10-14T07:49:54.064Z,101392.81
2022-10-14T07:52:21.440Z,101396.28
2022-10-14T07:54:48.629Z,101398.84
2022-10-14T07:57:16.709Z,101400.38
2022-10-14T07:59:44.895Z,101394.25
2022-10-14T08:02:13.027Z,101390.59
2022-10-14T08:04:40.348Z,101390.09
2022-10-14T08:07:07.286Z,101393.44
2022-10-14T08:09:36.727Z,101398.72
2022-10-14T08:12:04.121Z,101395.50
2022-10-14T08:14:31.073Z,101389.00
2022-10-14T08:16:58.213Z,101394.06
2022-10-14T08:19:25.849Z,101390.00
2022-10-14T08:21:53.454Z,101380.56
2022-10-14T08:24:20.663Z,101378.31
2022-10-14T08:26:58.081Z,101384.16
2022-10-14T08:29:26.730Z,101389.13
2022-10-14T08:31:55.324Z,101384.03
2022-10-14T08:34:24.428Z,101393.31
2022-10-14T08:36:51.979Z,101391.94
2022-10-14T08:39:21.224Z,101393.13
2022-10-14T08:42:09.327Z,101392.47
2022-10-14T08:44:58.536Z,101400.22
2022-10-14T08:47:36.150Z,101396.78
2022-10-14T08:50:36.729Z,101397.19
2022-10-14T08:53:15.960Z,101404.09
2022-10-14T08:55:57.275Z,101394.75
2022-10-14T08:58:49.017Z,101403.47
2022-10-14T09:01:23.063Z,101403.25
2022-10-14T09:03:52.907Z,101401.63
2022-10-14T09:06:33.924Z,101400.03
2022-10-14T09:09:11.269Z,101394.28
2022-10-14T09:11:45.115Z,101398.47
2022-10-14T09:14:26.452Z,101403.22
2022-10-14T09:17:02.386Z,101402.03
2022-10-14T09:19:38.607Z,101393.53
2022-10-14T09:22:14.258Z,101398.03
2022-10-14T09:24:44.869Z,101392.41
2022-10-14T09:27:24.384Z,101391.13
2022-10-14T09:30:00.612Z,101382.59
2022-10-14T09:32:34.559Z,101383.09
2022-10-14T09:35:03.058Z,101375.97
2022-10-14T09:37:37.354Z,101378.84
2022-10-14T09:40:08.013Z,101383.72
2022-10-14T09:42:53.019Z,101387.34
2022-10-14T09:45:23.934Z,101388.84
2022-10-14T09:48:00.433Z,101393.56
2022-10-14T09:50:36.938Z,101398.25
2022-10-14T09:53:15.889Z,101402.13
2022-10-14T09:55:49.614Z,101392.06
2022-10-14T09:58:19.371Z,101396.78
2022-10-14T10:00:47.168Z,101392.75
2022-10-14T10:03:35.582Z,101387.13
2022-10-14T10:06:07.186Z,101382.75
2022-10-14T10:08:42.443Z,101379.34
2022-10-14T10:11:14.083Z,101375.28
2022-10-14T10:13:47.309Z,101379.72
2022-10-14T10:16:22.055Z,101377.16
2022-10-14T10:18:51.989Z,101373.97
2022-10-14T10:21:27.093Z,101369.81
2022-10-14T10:24:03.259Z,101374.84
2022-10-14T10:26:33.961Z,101369.06
2022-10-14T10:29:04.839Z,101360.59
2022-10-14T10:31:51.538Z,101358.19
2022-10-14T10:35:12.171Z,101368.25
2022-10-14T10:37:50.517Z,101363.06
2022-10-14T10:40:40.154Z,101363.41
2022-10-14T10:43:19.977Z,101360.22
2022-10-14T10:46:15.720Z,101351.59
2022-10-14T10:48:54.790Z,101351.09
2022-10-14T10:52:04.400Z,101348.00
2022-10-14T10:54:48.600Z,101336.56
2022-10-14T10:57:52.838Z,101336.91
2022-10-14T11:03:09.706Z,101328.63
2022-10-14T11:05:55.426Z,101326.78
2022-10-14T11:09:02.862Z,101312.84
2022-10-14T11:11:59.074Z,101313.44
2022-10-14T11:14:38.291Z,101303.13
2022-10-14T11:17:30.065Z,101303.88
2022-10-14T11:20:09.394Z,101301.75
2022-10-14T11:22:51.450Z,101293.22
2022-10-14T11:25:41.820Z,101296.66
2022-10-14T11:28:51.449Z,101288.88
2022-10-14T11:31:28.888Z,101285.63
2022-10-14T11:34:34.036Z,101283.09
2022-10-14T11:37:24.953Z,101277.91
2022-10-14T11:40:30.409Z,101272.78
2022-10-14T11:43:09.420Z,101267.81
2022-10-14T11:45:59.240Z,101269.00
2022-10-14T11:48:59.116Z,101260.31
2022-10-14T11:51:42.768Z,101264.63
2022-10-14T11:54:17.653Z,101257.06
2022-10-14T11:56:56.699Z,101261.34
2022-10-14T12:00:01.625Z,101266.94
2022-10-14T12:03:22.427Z,101258.66
2022-10-14T12:06:12.330Z,101255.53
2022-10-14T12:08:57.166Z,101255.97
2022-10-14T12:11:41.212Z,101256.75
2022-10-14T12:14:38.554Z,101255.63
2022-10-14T12:17:19.580Z,101261.16
2022-10-14T12:19:46.846Z,101245.34
2022-10-14T12:22:27.781Z,101240.06
2022-10-14T12:25:17.307Z,101226.25
2022-10-14T12:27:45.015Z,101224.09
2022-10-14T12:30:41.705Z,101222.81
2022-10-14T12:33:16.731Z,101219.13
2022-10-14T12:35:47.326Z,101213.56
2022-10-14T12:38:19.919Z,101206.00
2022-10-14T12:40:50.650Z,101201.88
2022-10-14T12:43:26.814Z,101200.28
2022-10-14T12:46:02.598Z,101192.16
2022-10-14T12:48:35.364Z,101193.00
2022-10-14T12:51:12.207Z,101188.75
2022-10-14T12:53:49.326Z,101186.72
2022-10-14T12:57:01.655Z,101180.59
2022-10-14T12:59:38.574Z,101169.19
2022-10-14T13:02:33.679Z,101171.03
2022-10-14T13:05:10.348Z,101175.75
2022-10-14T13:07:46.580Z,101165.88
2022-10-14T13:10:43.193Z,101162.19
2022-10-14T13:13:38.342Z,101159.75
2022-10-14T13:16:10.199Z,101161.47
2022-10-14T13:18:43.341Z,101151.63
2022-10-14T13:21:26.203Z,101141.47
2022-10-14T13:23:55.238Z,101142.19
2022-10-14T13:26:28.816Z,101148.34
2022-10-14T13:29:14.406Z,101147.47
2022-10-14T13:32:00.177Z,101139.34
2022-10-14T13:35:01.332Z,101147.31
2022-10-14T13:37:43.279Z,101146.31
2022-10-14T13:40:26.113Z,101150.88
2022-10-14T13:43:06.205Z,101148.34
2022-10-14T13:45:42.193Z,101145.75
2022-10-14T13:48:21.588Z,101148.34
2022-10-14T13:50:56.076Z,101154.44
2022-10-14T13:53:29.504Z,101149.75
2022-10-14T13:55:58.669Z,101144.75
2022-10-14T13:58:25.806Z,101147.16
2022-10-14T14:01:04.675Z,101142.44
2022-10-14T14:03:38.270Z,101142.44
2022-10-14T14:06:18.050Z,101127.59
2022-10-14T14:08:55.100Z,101136.91
2022-10-14T14:11:32.431Z,101123.34
2022-10-14T14:14:18.947Z,101124.88
2022-10-14T14:17:07.182Z,101123.44
2022-10-14T14:19:37.414Z,101121.84
2022-10-14T14:22:14.687Z,101123.97
2022-10-14T14:24:43.233Z,101122.28
2022-10-14T14:27:24.039Z,101115.44
2022-10-14T14:29:53.986Z,101117.28
2022-10-14T14:32:32.980Z,101118.28
2022-10-14T14:35:01.520Z,101108.56
2022-10-14T14:37:55.777Z,101113.31
2022-10-14T14:40:26.380Z,101104.44
2022-10-14T14:43:05.565Z,101110.59
2022-10-14T14:45:43.553Z,101113.31
2022-10-14T14:48:13.205Z,101103.59
2022-10-14T14:50:44.013Z,101109.03
2022-10-14T14:53:16.459Z,101108.31
2022-10-14T14:55:55.685Z,101103.59
2022-10-14T14:58:47.230Z,101107.16
2022-10-14T15:01:28.372Z,101109.75
2022-10-14T15:04:13.373Z,101107.88
2022-10-14T15:07:06.914Z,101099.56
2022-10-14T15:09:43.234Z,101107.72
2022-10-14T15:12:34.098Z,101107.88
2022-10-14T15:15:04.257Z,101094.44
2022-10-14T15:17:39.712Z,101090.88
2022-10-14T15:20:36.548Z,101093.75
2022-10-14T15:23:38.389Z,101095.03
2022-10-14T15:26:31.526Z,101094.34
2022-10-14T15:29:15.356Z,101101.00
2022-10-14T15:32:02.236Z,101097.72
2022-10-14T15:34:29.578Z,101104.34
2022-10-14T15:36:57.631Z,101095.47
2022-10-14T15:39:25.406Z,101097.63
2022-10-14T15:41:52.536Z,101091.63
2022-10-14T15:44:19.474Z,101094.47
2022-10-14T15:47:05.386Z,101093.78
2022-10-14T15:49:42.584Z,101093.22
2022-10-14T15:52:16.060Z,101086.22
2022-10-14T15:54:45.912Z,101091.09
2022-10-14T15:57:16.804Z,101094.94
2022-10-14T15:59:48.301Z,101100.66
2022-10-14T16:02:29.362Z,101108.22
2022-10-14T16:07:45.453Z,101100.78
2022-10-14T16:10:16.728Z,101099.38
2022-10-14T16:12:44.107Z,101102.25
2022-10-14T16:15:28.930Z,101094.38
2022-10-14T16:17:55.906Z,101095.69
2022-10-14T16:20:43.719Z,101099.53
2022-10-14T16:23:22.554Z,101097.97
2022-10-14T16:25:53.144Z,101097.50
2022-10-14T16:28:21.755Z,101097.78
2022-10-14T16:30:50.254Z,101108.91
2022-10-14T16:33:21.751Z,101108.34
2022-10-14T16:35:57.679Z,101110.38
2022-10-14T16:38:24.710Z,101119.88
2022-10-14T16:41:00.098Z,101114.72
2022-10-14T16:43:29.160Z,101127.72
2022-10-14T16:46:01.878Z,101134.25
2022-10-14T16:48:29.949Z,101131.97
2022-10-14T16:50:57.059Z,101134.13
2022-10-14T16:53:40.599Z,101129.09
2022-10-14T16:56:37.406Z,101132.06
2022-10-14T16:59:05.986Z,101135.34
2022-10-14T17:01:33.655Z,101140.19
2022-10-14T17:04:02.690Z,101137.75
2022-10-14T17:06:30.217Z,101136.31
2022-10-14T17:08:57.331Z,101134.72
2022-10-14T17:11:27.349Z,101137.00
2022-10-14T17:14:00.084Z,101133.72
2022-10-14T17:16:28.848Z,101135.97
2022-10-14T17:18:58.626Z,101145.38
2022-10-14T17:21:29.792Z,101151.16
2022-10-14T17:24:01.931Z,101155.16
2022-10-14T17:26:32.526Z,101154.56
2022-10-14T17:29:00.175Z,101157.53
2022-10-14T17:31:29.072Z,101164.22
2022-10-14T17:33:56.243Z,101168.00
2022-10-14T17:36:27.906Z,101168.28
2022-10-14T17:38:57.647Z,101164.13
2022-10-14T17:41:27.943Z,101167.22
2022-10-14T17:43:58.431Z,101165.78
2022-10-14T17:46:26.377Z,101173.19
2022-10-14T17:48:56.486Z,101172.56
2022-10-14T17:51:25.604Z,101163.84
2022-10-14T17:53:58.489Z,101166.81
2022-10-14T17:56:27.985Z,101178.78
2022-10-14T17:58:57.853Z,101171.06
2022-10-14T18:01:43.711Z,101175.88
2022-10-14T18:04:14.545Z,101178.84
2022-10-14T18:06:45.349Z,101192.50
2022-10-14T18:09:12.565Z,101179.94
2022-10-14T18:12:07.544Z,101185.50
2022-10-14T18:14:30.398Z,101187.47
2022-10-14T18:16:59.248Z,101187.63
2022-10-14T18:19:27.189Z,101189.56
2022-10-14T18:21:54.308Z,101188.88
2022-10-14T18:24:21.344Z,101190.84
2022-10-14T18:26:52.408Z,101187.38
2022-10-14T18:29:19.494Z,101193.94
2022-10-14T18:31:49.932Z,101190.50
2022-10-14T18:34:17.537Z,101186.44
2022-10-14T18:36:44.958Z,101185.75
2022-10-14T18:39:12.505Z,101184.16
2022-10-14T18:41:39.905Z,101184.41
2022-10-14T18:44:07.701Z,101178.41
2022-10-14T18:46:37.346Z,101179.34
2022-10-14T18:49:07.704Z,101177.78
2022-10-14T18:51:37.958Z,101175.34
2022-10-14T18:54:14.893Z,101177.44
2022-10-14T18:56:44.384Z,101184.03
2022-10-14T18:59:17.977Z,101170.78
2022-10-14T19:01:47.467Z,101176.44
2022-10-14T19:04:16.114Z,101173.03
2022-10-14T19:06:48.795Z,101170.56
2022-10-14T19:09:21.574Z,101176.22
2022-10-14T19:11:52.665Z,101182.75
2022-10-14T19:14:20.721Z,101172.19
2022-10-14T19:16:49.536Z,101175.13
2022-10-14T19:19:19.923Z,101173.53
2022-10-14T19:21:54.434Z,101177.38
2022-10-14T19:24:21.849Z,101177.63
2022-10-14T19:26:50.051Z,101180.44
2022-10-14T19:29:17.537Z,101175.03
2022-10-14T19:31:44.977Z,101175.03
2022-10-14T19:34:15.733Z,101179.56
2022-10-14T19:36:44.231Z,101179.81
2022-10-14T19:39:15.729Z,101178.97
2022-10-14T19:41:44.435Z,101178.22
2022-10-14T19:44:12.638Z,101174.66
2022-10-14T19:46:40.432Z,101187.31
2022-10-14T19:49:07.607Z,101183.75
2022-10-14T19:51:35.199Z,101183.75
2022-10-14T19:54:02.697Z,101183.75
2022-10-14T19:56:30.526Z,101185.63
2022-10-14T19:58:59.205Z,101188.31
2022-10-14T20:01:29.647Z,101194.69
2022-10-14T20:03:57.241Z,101189.28
2022-10-14T20:06:24.522Z,101192.13
2022-10-14T20:08:52.236Z,101200.22
2022-10-14T20:11:22.370Z,101200.22
2022-10-14T20:13:49.533Z,101211.13
2022-10-14T20:16:17.412Z,101214.81
2022-10-14T20:18:44.659Z,101214.97
2022-10-14T20:21:14.969Z,101214.97
2022-10-14T20:23:43.091Z,101215.22
2022-10-14T20:26:19.989Z,101209.81
2022-10-14T20:28:48.912Z,101203.56
2022-10-14T20:31:21.914Z,101211.75
2022-10-14T20:33:49.567Z,101212.75
2022-10-14T20:36:20.171Z,101211.00
2022-10-14T20:38:48.737Z,101212.84
2022-10-14T20:41:23.392Z,101212.84
2022-10-14T20:43:52.509Z,101212.13
2022-10-14T20:46:20.102Z,101206.84
2022-10-14T20:48:47.314Z,101208.69
2022-10-14T20:51:20.143Z,101217.03
2022-10-14T20:53:47.058Z,101222.69
2022-10-14T20:56:14.789Z,101212.00
2022-10-14T20:58:43.206Z,101219.25
2022-10-14T21:01:18.134Z,101222.91
2022-10-14T21:03:47.766Z,101223.06
2022-10-14T21:06:20.289Z,101217.91
2022-10-14T21:08:50.036Z,101213.84
2022-10-14T21:11:20.876Z,101208.56
2022-10-14T21:13:51.725Z,101211.38
2022-10-14T21:16:42.222Z,101212.47
2022-10-14T21:19:10.954Z,101210.75
2022-10-14T21:21:42.841Z,101210.00
2022-10-14T21:24:16.959Z,101209.28
2022-10-14T21:26:50.528Z,101209.41
2022-10-14T21:29:19.883Z,101206.91
2022-10-14T21:31:49.293Z,101201.75
2022-10-14T21:34:16.816Z,101207.41
2022-10-14T21:36:44.873Z,101207.75
2022-10-14T21:39:15.533Z,101205.28
2022-10-14T21:41:43.701Z,101206.38
2022-10-14T21:44:21.143Z,101203.06
2022-10-14T21:46:49.143Z,101206.75
2022-10-14T21:49:16.447Z,101208.69
2022-10-14T21:51:43.381Z,101205.28
2022-10-14T21:54:14.399Z,101217.03
2022-10-14T21:56:41.623Z,101218.88
2022-10-14T21:59:10.444Z,101204.75
2022-10-14T22:01:37.539Z,101210.28
2022-10-14T22:04:06.566Z,101205.84
2022-10-14T22:06:36.104Z,101207.94
2022-10-14T22:09:06.760Z,101209.78
2022-10-14T22:11:37.782Z,101202.69
2022-10-14T22:14:10.032Z,101211.72
2022-10-14T22:16:37.166Z,101205.47
2022-10-14T22:19:06.389Z,101203.75
2022-10-14T22:21:36.541Z,101205.94
2022-10-14T22:24:05.853Z,101204.38
2022-10-14T22:26:33.868Z,101203.59
2022-10-14T22:29:15.466Z,101210.09
2022-10-14T22:31:42.856Z,101208.47
2022-10-14T22:34:14.282Z,101205.06
2022-10-14T22:36:42.190Z,101207.00
2022-10-14T22:39:16.245Z,101201.75
2022-10-14T22:41:43.446Z,101209.06
2022-10-14T22:44:11.318Z,101215.44
2022-10-14T22:46:40.335Z,101220.94
2022-10-14T22:49:07.679Z,101223.63
2022-10-14T22:51:40.628Z,101221.81
2022-10-14T22:54:08.275Z,101211.00
2022-10-14T22:56:35.340Z,101213.72
2022-10-14T22:59:09.511Z,101203.06
2022-10-14T23:01:38.181Z,101211.00
2022-10-14T23:04:05.564Z,101210.06
2022-10-14T23:06:32.564Z,101208.22
2022-10-14T23:09:00.892Z,101219.22
2022-10-14T23:11:30.825Z,101210.53
2022-10-14T23:14:00.294Z,101206.22
2022-10-14T23:16:29.886Z,101209.91
2022-10-14T23:18:59.062Z,101204.59
2022-10-14T23:21:34.095Z,101214.31
2022-10-14T23:24:06.958Z,101209.91
2022-10-14T23:26:35.749Z,101210.84
2022-10-14T23:29:08.851Z,101217.00
2022-10-14T23:31:38.043Z,101216.91
2022-10-14T23:34:12.350Z,101204.28
2022-10-14T23:36:40.247Z,101215.78
2022-10-14T23:39:07.755Z,101212.13
2022-10-14T23:41:35.936Z,101212.00
2022-10-14T23:44:03.235Z,101211.16
2022-10-14T23:46:30.421Z,101215.56
2022-10-14T23:49:06.888Z,101223.63
2022-10-14T23:51:41.145Z,101224.41
2022-10-14T23:54:08.446Z,101220.72
2022-10-14T23:56:36.060Z,101217.06
2022-10-14T23:59:03.616Z,101218.78
